sensor_id;sensor_type;location;lat;lon;timestamp;P1;durP1;ratioP1;P2;durP2;ratioP2
69954;SDS011;57279;55.912;37.490;2023-05-02T00:01:09;6.93;;;1.90;;
69954;SDS011;57279;55.912;37.490;2023-05-02T00:03:34;9.60;;;1.95;;
69954;SDS011;57279;55.912;37.490;2023-05-02T00:06:01;7.05;;;2.00;;
69954;SDS011;57279;55.912;37.490;2023-05-02T00:08:26;7.13;;;1.73;;
69954;SDS011;57279;55.912;37.490;2023-05-02T00:10:52;8.20;;;2.22;;
69954;SDS011;57279;55.912;37.490;2023-05-02T00:13:18;9.73;;;1.52;;
69954;SDS011;57279;55.912;37.490;2023-05-02T00:15:43;7.88;;;2.00;;
69954;SDS011;57279;55.912;37.490;2023-05-02T00:18:09;9.30;;;2.05;;
69954;SDS011;57279;55.912;37.490;2023-05-02T00:20:35;7.50;;;1.52;;
69954;SDS011;57279;55.912;37.490;2023-05-02T00:23:00;6.65;;;1.90;;
69954;SDS011;57279;55.912;37.490;2023-05-02T00:25:26;6.55;;;1.65;;
69954;SDS011;57279;55.912;37.490;2023-05-02T00:27:51;9.98;;;2.50;;
69954;SDS011;57279;55.912;37.490;2023-05-02T00:30:17;6.60;;;1.40;;
69954;SDS011;57279;55.912;37.490;2023-05-02T00:35:09;7.57;;;1.50;;
69954;SDS011;57279;55.912;37.490;2023-05-02T00:37:35;10.50;;;1.67;;
69954;SDS011;57279;55.912;37.490;2023-05-02T00:40:01;7.20;;;1.90;;
69954;SDS011;57279;55.912;37.490;2023-05-02T00:42:28;6.55;;;1.67;;
69954;SDS011;57279;55.912;37.490;2023-05-02T00:44:58;6.82;;;1.45;;
69954;SDS011;57279;55.912;37.490;2023-05-02T00:47:24;13.40;;;1.70;;
69954;SDS011;57279;55.912;37.490;2023-05-02T00:52:15;8.48;;;1.95;;
69954;SDS011;57279;55.912;37.490;2023-05-02T00:54:41;14.25;;;2.00;;
69954;SDS011;57279;55.912;37.490;2023-05-02T00:57:08;10.23;;;1.50;;
69954;SDS011;57279;55.912;37.490;2023-05-02T00:59:34;7.68;;;1.83;;
69954;SDS011;57279;55.912;37.490;2023-05-02T01:10:47;9.00;;;2.08;;
69954;SDS011;57279;55.912;37.490;2023-05-02T01:13:21;7.25;;;1.67;;
69954;SDS011;57279;55.912;37.490;2023-05-02T01:15:50;8.23;;;2.08;;
69954;SDS011;57279;55.912;37.490;2023-05-02T01:18:25;7.35;;;1.75;;
69954;SDS011;57279;55.912;37.490;2023-05-02T01:20:56;6.85;;;1.95;;
69954;SDS011;57279;55.912;37.490;2023-05-02T01:23:27;7.22;;;2.15;;
69954;SDS011;57279;55.912;37.490;2023-05-02T01:29:30;7.18;;;2.00;;
69954;SDS011;57279;55.912;37.490;2023-05-02T01:31:57;12.07;;;2.10;;
69954;SDS011;57279;55.912;37.490;2023-05-02T01:34:26;10.82;;;2.28;;
69954;SDS011;57279;55.912;37.490;2023-05-02T01:36:54;8.02;;;1.90;;
69954;SDS011;57279;55.912;37.490;2023-05-02T01:39:24;8.88;;;1.90;;
69954;SDS011;57279;55.912;37.490;2023-05-02T01:41:52;11.30;;;1.92;;
69954;SDS011;57279;55.912;37.490;2023-05-02T01:44:21;9.88;;;2.05;;
69954;SDS011;57279;55.912;37.490;2023-05-02T01:46:48;9.10;;;2.30;;
69954;SDS011;57279;55.912;37.490;2023-05-02T01:49:17;8.63;;;2.55;;
69954;SDS011;57279;55.912;37.490;2023-05-02T01:51:45;9.10;;;2.38;;
69954;SDS011;57279;55.912;37.490;2023-05-02T01:54:14;7.13;;;1.63;;
69954;SDS011;57279;55.912;37.490;2023-05-02T01:56:41;8.23;;;1.85;;
69954;SDS011;57279;55.912;37.490;2023-05-02T01:59:09;12.32;;;2.35;;
69954;SDS011;57279;55.912;37.490;2023-05-02T02:01:37;10.02;;;2.15;;
69954;SDS011;57279;55.912;37.490;2023-05-02T02:04:04;7.57;;;1.70;;
69954;SDS011;57279;55.912;37.490;2023-05-02T02:06:31;8.73;;;2.45;;
69954;SDS011;57279;55.912;37.490;2023-05-02T02:08:57;12.52;;;2.65;;
69954;SDS011;57279;55.912;37.490;2023-05-02T02:11:25;11.25;;;2.60;;
69954;SDS011;57279;55.912;37.490;2023-05-02T02:14:11;13.10;;;2.53;;
69954;SDS011;57279;55.912;37.490;2023-05-02T02:17:17;11.95;;;2.22;;
69954;SDS011;57279;55.912;37.490;2023-05-02T02:19:48;8.88;;;2.22;;
69954;SDS011;57279;55.912;37.490;2023-05-02T02:22:18;7.65;;;1.98;;
69954;SDS011;57279;55.912;37.490;2023-05-02T02:24:46;10.35;;;2.30;;
69954;SDS011;57279;55.912;37.490;2023-05-02T02:27:12;11.25;;;2.78;;
69954;SDS011;57279;55.912;37.490;2023-05-02T02:29:39;7.75;;;2.38;;
69954;SDS011;57279;55.912;37.490;2023-05-02T02:32:04;9.30;;;1.98;;
69954;SDS011;57279;55.912;37.490;2023-05-02T02:34:30;8.05;;;2.17;;
69954;SDS011;57279;55.912;37.490;2023-05-02T02:36:57;9.80;;;2.50;;
69954;SDS011;57279;55.912;37.490;2023-05-02T02:42:30;7.00;;;2.08;;
69954;SDS011;57279;55.912;37.490;2023-05-02T02:48:01;8.57;;;2.72;;
69954;SDS011;57279;55.912;37.490;2023-05-02T02:50:37;8.63;;;2.67;;
69954;SDS011;57279;55.912;37.490;2023-05-02T02:53:24;9.80;;;2.58;;
69954;SDS011;57279;55.912;37.490;2023-05-02T02:55:54;9.27;;;2.63;;
69954;SDS011;57279;55.912;37.490;2023-05-02T03:01:03;13.07;;;3.00;;
69954;SDS011;57279;55.912;37.490;2023-05-02T03:03:31;13.85;;;3.60;;
69954;SDS011;57279;55.912;37.490;2023-05-02T03:05:57;9.82;;;3.25;;
69954;SDS011;57279;55.912;37.490;2023-05-02T03:08:24;23.23;;;3.60;;
69954;SDS011;57279;55.912;37.490;2023-05-02T03:13:16;14.45;;;3.55;;
69954;SDS011;57279;55.912;37.490;2023-05-02T03:18:20;11.88;;;3.28;;
69954;SDS011;57279;55.912;37.490;2023-05-02T03:20:46;19.90;;;3.60;;
69954;SDS011;57279;55.912;37.490;2023-05-02T03:23:12;11.80;;;3.22;;
69954;SDS011;57279;55.912;37.490;2023-05-02T03:25:38;8.80;;;3.10;;
69954;SDS011;57279;55.912;37.490;2023-05-02T03:28:05;16.48;;;3.40;;
69954;SDS011;57279;55.912;37.490;2023-05-02T03:30:31;13.13;;;3.25;;
69954;SDS011;57279;55.912;37.490;2023-05-02T03:32:57;11.65;;;2.75;;
69954;SDS011;57279;55.912;37.490;2023-05-02T03:35:24;12.32;;;2.63;;
69954;SDS011;57279;55.912;37.490;2023-05-02T03:37:51;11.48;;;2.83;;
69954;SDS011;57279;55.912;37.490;2023-05-02T03:40:17;13.27;;;3.30;;
69954;SDS011;57279;55.912;37.490;2023-05-02T03:42:46;14.43;;;2.83;;
69954;SDS011;57279;55.912;37.490;2023-05-02T03:45:21;16.75;;;3.42;;
69954;SDS011;57279;55.912;37.490;2023-05-02T03:47:49;9.00;;;2.95;;
69954;SDS011;57279;55.912;37.490;2023-05-02T03:50:15;9.18;;;2.75;;
69954;SDS011;57279;55.912;37.490;2023-05-02T03:52:44;8.27;;;2.45;;
69954;SDS011;57279;55.912;37.490;2023-05-02T03:55:10;9.65;;;2.83;;
69954;SDS011;57279;55.912;37.490;2023-05-02T04:00:02;9.10;;;2.83;;
69954;SDS011;57279;55.912;37.490;2023-05-02T04:02:36;9.23;;;2.72;;
69954;SDS011;57279;55.912;37.490;2023-05-02T04:05:03;7.90;;;2.42;;
69954;SDS011;57279;55.912;37.490;2023-05-02T04:07:30;10.38;;;3.20;;
69954;SDS011;57279;55.912;37.490;2023-05-02T04:10:00;9.65;;;3.08;;
69954;SDS011;57279;55.912;37.490;2023-05-02T04:12:25;7.75;;;2.42;;
69954;SDS011;57279;55.912;37.490;2023-05-02T04:14:52;8.18;;;2.83;;
69954;SDS011;57279;55.912;37.490;2023-05-02T04:17:20;7.25;;;2.33;;
69954;SDS011;57279;55.912;37.490;2023-05-02T04:19:48;7.20;;;2.60;;
69954;SDS011;57279;55.912;37.490;2023-05-02T04:22:15;9.20;;;2.65;;
69954;SDS011;57279;55.912;37.490;2023-05-02T04:24:45;11.13;;;2.55;;
69954;SDS011;57279;55.912;37.490;2023-05-02T04:27:12;9.98;;;2.15;;
69954;SDS011;57279;55.912;37.490;2023-05-02T04:32:05;8.95;;;2.05;;
69954;SDS011;57279;55.912;37.490;2023-05-02T04:34:31;8.85;;;2.22;;
69954;SDS011;57279;55.912;37.490;2023-05-02T04:39:24;7.70;;;2.53;;
69954;SDS011;57279;55.912;37.490;2023-05-02T04:41:58;7.20;;;2.00;;
69954;SDS011;57279;55.912;37.490;2023-05-02T04:44:27;12.77;;;2.80;;
69954;SDS011;57279;55.912;37.490;2023-05-02T04:46:54;7.43;;;2.13;;
69954;SDS011;57279;55.912;37.490;2023-05-02T04:51:45;8.80;;;2.58;;
69954;SDS011;57279;55.912;37.490;2023-05-02T04:54:12;12.15;;;2.60;;
69954;SDS011;57279;55.912;37.490;2023-05-02T04:56:39;9.90;;;2.42;;
69954;SDS011;57279;55.912;37.490;2023-05-02T05:01:32;10.20;;;2.35;;
69954;SDS011;57279;55.912;37.490;2023-05-02T05:03:59;9.52;;;2.15;;
69954;SDS011;57279;55.912;37.490;2023-05-02T05:08:51;10.45;;;2.35;;
69954;SDS011;57279;55.912;37.490;2023-05-02T05:13:42;14.27;;;2.20;;
69954;SDS011;57279;55.912;37.490;2023-05-02T05:16:10;10.50;;;2.13;;
69954;SDS011;57279;55.912;37.490;2023-05-02T05:18:36;12.15;;;2.53;;
69954;SDS011;57279;55.912;37.490;2023-05-02T05:21:07;10.40;;;2.22;;
69954;SDS011;57279;55.912;37.490;2023-05-02T05:23:33;8.38;;;2.45;;
69954;SDS011;57279;55.912;37.490;2023-05-02T05:28:37;7.65;;;2.08;;
69954;SDS011;57279;55.912;37.490;2023-05-02T05:31:12;11.07;;;2.47;;
69954;SDS011;57279;55.912;37.490;2023-05-02T05:33:44;9.15;;;2.40;;
69954;SDS011;57279;55.912;37.490;2023-05-02T05:36:11;7.35;;;1.70;;
69954;SDS011;57279;55.912;37.490;2023-05-02T05:38:38;9.48;;;2.03;;
69954;SDS011;57279;55.912;37.490;2023-05-02T05:41:05;8.13;;;2.47;;
69954;SDS011;57279;55.912;37.490;2023-05-02T05:43:33;6.20;;;1.75;;
69954;SDS011;57279;55.912;37.490;2023-05-02T05:45:59;8.23;;;1.65;;
69954;SDS011;57279;55.912;37.490;2023-05-02T05:48:28;10.00;;;1.70;;
69954;SDS011;57279;55.912;37.490;2023-05-02T05:53:19;6.95;;;1.60;;
69954;SDS011;57279;55.912;37.490;2023-05-02T05:55:47;8.00;;;1.77;;
69954;SDS011;57279;55.912;37.490;2023-05-02T05:58:13;8.27;;;1.50;;
69954;SDS011;57279;55.912;37.490;2023-05-02T06:00:41;7.32;;;1.75;;
69954;SDS011;57279;55.912;37.490;2023-05-02T06:05:32;6.65;;;1.23;;
69954;SDS011;57279;55.912;37.490;2023-05-02T06:07:58;6.22;;;1.30;;
69954;SDS011;57279;55.912;37.490;2023-05-02T06:10:25;6.05;;;1.50;;
69954;SDS011;57279;55.912;37.490;2023-05-02T06:12:51;6.35;;;1.38;;
69954;SDS011;57279;55.912;37.490;2023-05-02T06:15:21;7.53;;;1.42;;
69954;SDS011;57279;55.912;37.490;2023-05-02T06:17:47;10.25;;;1.90;;
69954;SDS011;57279;55.912;37.490;2023-05-02T06:20:15;12.05;;;1.75;;
69954;SDS011;57279;55.912;37.490;2023-05-02T06:22:41;7.78;;;1.63;;
69954;SDS011;57279;55.912;37.490;2023-05-02T06:25:06;7.22;;;1.55;;
69954;SDS011;57279;55.912;37.490;2023-05-02T06:27:33;11.90;;;1.95;;
69954;SDS011;57279;55.912;37.490;2023-05-02T06:29:59;6.30;;;1.58;;
69954;SDS011;57279;55.912;37.490;2023-05-02T06:32:24;6.70;;;1.40;;
69954;SDS011;57279;55.912;37.490;2023-05-02T06:34:55;8.32;;;1.20;;
69954;SDS011;57279;55.912;37.490;2023-05-02T06:37:20;8.10;;;1.00;;
69954;SDS011;57279;55.912;37.490;2023-05-02T06:39:46;5.90;;;1.10;;
69954;SDS011;57279;55.912;37.490;2023-05-02T06:42:11;5.50;;;0.80;;
69954;SDS011;57279;55.912;37.490;2023-05-02T06:44:37;4.45;;;0.93;;
69954;SDS011;57279;55.912;37.490;2023-05-02T06:47:03;5.32;;;0.82;;
69954;SDS011;57279;55.912;37.490;2023-05-02T06:49:29;4.18;;;0.68;;
69954;SDS011;57279;55.912;37.490;2023-05-02T06:51:55;4.43;;;0.63;;
69954;SDS011;57279;55.912;37.490;2023-05-02T06:54:20;5.18;;;0.82;;
69954;SDS011;57279;55.912;37.490;2023-05-02T06:56:46;5.13;;;1.02;;
69954;SDS011;57279;55.912;37.490;2023-05-02T06:59:12;2.75;;;0.52;;
69954;SDS011;57279;55.912;37.490;2023-05-02T07:01:37;4.38;;;0.73;;
69954;SDS011;57279;55.912;37.490;2023-05-02T07:04:03;4.35;;;0.52;;
69954;SDS011;57279;55.912;37.490;2023-05-02T07:06:30;3.72;;;0.45;;
69954;SDS011;57279;55.912;37.490;2023-05-02T07:08:56;4.15;;;0.70;;
69954;SDS011;57279;55.912;37.490;2023-05-02T07:11:22;3.72;;;0.65;;
69954;SDS011;57279;55.912;37.490;2023-05-02T07:13:48;2.70;;;0.57;;
69954;SDS011;57279;55.912;37.490;2023-05-02T07:16:14;5.82;;;0.93;;
69954;SDS011;57279;55.912;37.490;2023-05-02T07:18:40;5.70;;;1.13;;
69954;SDS011;57279;55.912;37.490;2023-05-02T07:21:07;6.53;;;0.98;;
69954;SDS011;57279;55.912;37.490;2023-05-02T07:23:32;6.72;;;1.05;;
69954;SDS011;57279;55.912;37.490;2023-05-02T07:25:58;7.07;;;0.73;;
69954;SDS011;57279;55.912;37.490;2023-05-02T07:28:24;4.05;;;0.73;;
69954;SDS011;57279;55.912;37.490;2023-05-02T07:30:50;5.78;;;0.70;;
69954;SDS011;57279;55.912;37.490;2023-05-02T07:33:16;3.33;;;0.60;;
69954;SDS011;57279;55.912;37.490;2023-05-02T07:35:42;3.25;;;0.60;;
69954;SDS011;57279;55.912;37.490;2023-05-02T07:38:07;3.72;;;0.63;;
69954;SDS011;57279;55.912;37.490;2023-05-02T07:40:33;3.42;;;0.52;;
69954;SDS011;57279;55.912;37.490;2023-05-02T07:43:01;4.00;;;0.63;;
69954;SDS011;57279;55.912;37.490;2023-05-02T07:45:27;4.18;;;0.77;;
69954;SDS011;57279;55.912;37.490;2023-05-02T07:47:53;3.28;;;0.75;;
69954;SDS011;57279;55.912;37.490;2023-05-02T07:50:18;5.85;;;0.70;;
69954;SDS011;57279;55.912;37.490;2023-05-02T07:52:44;3.38;;;0.60;;
69954;SDS011;57279;55.912;37.490;2023-05-02T07:55:10;3.03;;;0.55;;
69954;SDS011;57279;55.912;37.490;2023-05-02T07:57:36;3.22;;;0.63;;
69954;SDS011;57279;55.912;37.490;2023-05-02T08:00:02;4.82;;;0.70;;
69954;SDS011;57279;55.912;37.490;2023-05-02T08:02:38;2.88;;;0.60;;
69954;SDS011;57279;55.912;37.490;2023-05-02T08:05:05;3.55;;;0.55;;
69954;SDS011;57279;55.912;37.490;2023-05-02T08:07:31;5.13;;;0.75;;
69954;SDS011;57279;55.912;37.490;2023-05-02T08:09:59;5.82;;;0.77;;
69954;SDS011;57279;55.912;37.490;2023-05-02T08:12:25;6.57;;;1.17;;
69954;SDS011;57279;55.912;37.490;2023-05-02T08:14:51;7.15;;;1.02;;
69954;SDS011;57279;55.912;37.490;2023-05-02T08:17:17;5.43;;;0.98;;
69954;SDS011;57279;55.912;37.490;2023-05-02T08:19:43;4.95;;;0.90;;
69954;SDS011;57279;55.912;37.490;2023-05-02T08:22:09;7.15;;;0.80;;
69954;SDS011;57279;55.912;37.490;2023-05-02T08:24:34;4.05;;;0.68;;
69954;SDS011;57279;55.912;37.490;2023-05-02T08:27:00;3.70;;;0.60;;
69954;SDS011;57279;55.912;37.490;2023-05-02T08:29:28;4.05;;;1.33;;
69954;SDS011;57279;55.912;37.490;2023-05-02T08:31:55;3.95;;;0.93;;
69954;SDS011;57279;55.912;37.490;2023-05-02T08:34:20;4.15;;;0.55;;
69954;SDS011;57279;55.912;37.490;2023-05-02T08:36:46;6.95;;;0.88;;
69954;SDS011;57279;55.912;37.490;2023-05-02T08:39:12;7.43;;;1.27;;
69954;SDS011;57279;55.912;37.490;2023-05-02T08:41:37;6.70;;;1.35;;
69954;SDS011;57279;55.912;37.490;2023-05-02T08:44:04;6.40;;;1.23;;
69954;SDS011;57279;55.912;37.490;2023-05-02T08:46:31;3.45;;;0.50;;
69954;SDS011;57279;55.912;37.490;2023-05-02T08:49:01;3.50;;;0.60;;
69954;SDS011;57279;55.912;37.490;2023-05-02T08:51:28;2.92;;;0.40;;
69954;SDS011;57279;55.912;37.490;2023-05-02T08:53:57;3.25;;;0.43;;
69954;SDS011;57279;55.912;37.490;2023-05-02T08:56:24;6.93;;;0.60;;
69954;SDS011;57279;55.912;37.490;2023-05-02T08:58:50;5.35;;;0.52;;
69954;SDS011;57279;55.912;37.490;2023-05-02T09:01:17;4.15;;;0.80;;
69954;SDS011;57279;55.912;37.490;2023-05-02T09:03:44;1.85;;;0.40;;
69954;SDS011;57279;55.912;37.490;2023-05-02T09:06:12;7.65;;;0.63;;
69954;SDS011;57279;55.912;37.490;2023-05-02T09:08:43;2.97;;;0.50;;
69954;SDS011;57279;55.912;37.490;2023-05-02T09:11:15;4.07;;;0.47;;
69954;SDS011;57279;55.912;37.490;2023-05-02T09:13:42;3.28;;;0.40;;
69954;SDS011;57279;55.912;37.490;2023-05-02T09:16:12;3.47;;;0.70;;
69954;SDS011;57279;55.912;37.490;2023-05-02T09:18:49;3.63;;;0.70;;
69954;SDS011;57279;55.912;37.490;2023-05-02T09:21:26;4.57;;;0.73;;
69954;SDS011;57279;55.912;37.490;2023-05-02T09:24:01;4.93;;;0.80;;
69954;SDS011;57279;55.912;37.490;2023-05-02T09:27:01;5.22;;;1.40;;
69954;SDS011;57279;55.912;37.490;2023-05-02T09:29:28;5.13;;;0.85;;
69954;SDS011;57279;55.912;37.490;2023-05-02T09:32:03;4.72;;;0.70;;
69954;SDS011;57279;55.912;37.490;2023-05-02T09:34:30;5.13;;;0.98;;
69954;SDS011;57279;55.912;37.490;2023-05-02T09:36:56;8.50;;;2.05;;
69954;SDS011;57279;55.912;37.490;2023-05-02T09:39:22;7.40;;;1.27;;
69954;SDS011;57279;55.912;37.490;2023-05-02T09:41:53;9.15;;;1.00;;
69954;SDS011;57279;55.912;37.490;2023-05-02T09:44:21;5.78;;;0.82;;
69954;SDS011;57279;55.912;37.490;2023-05-02T09:46:49;6.40;;;1.20;;
69954;SDS011;57279;55.912;37.490;2023-05-02T09:49:16;5.20;;;0.73;;
69954;SDS011;57279;55.912;37.490;2023-05-02T09:51:45;5.10;;;0.73;;
69954;SDS011;57279;55.912;37.490;2023-05-02T09:54:12;4.90;;;0.90;;
69954;SDS011;57279;55.912;37.490;2023-05-02T09:56:51;4.30;;;0.73;;
69954;SDS011;57279;55.912;37.490;2023-05-02T09:59:21;4.22;;;0.88;;
69954;SDS011;57279;55.912;37.490;2023-05-02T10:01:57;4.68;;;1.10;;
69954;SDS011;57279;55.912;37.490;2023-05-02T10:04:24;3.78;;;0.63;;
69954;SDS011;57279;55.912;37.490;2023-05-02T10:06:51;4.35;;;1.02;;
69954;SDS011;57279;55.912;37.490;2023-05-02T10:09:21;4.30;;;0.60;;
69954;SDS011;57279;55.912;37.490;2023-05-02T10:11:50;4.78;;;0.85;;
69954;SDS011;57279;55.912;37.490;2023-05-02T10:14:18;4.00;;;0.57;;
69954;SDS011;57279;55.912;37.490;2023-05-02T10:16:59;6.72;;;0.73;;
69954;SDS011;57279;55.912;37.490;2023-05-02T10:19:40;5.40;;;1.25;;
69954;SDS011;57279;55.912;37.490;2023-05-02T10:22:14;5.18;;;1.15;;
69954;SDS011;57279;55.912;37.490;2023-05-02T10:24:43;12.50;;;1.65;;
69954;SDS011;57279;55.912;37.490;2023-05-02T10:27:12;9.30;;;2.40;;
69954;SDS011;57279;55.912;37.490;2023-05-02T10:29:39;7.70;;;1.63;;
69954;SDS011;57279;55.912;37.490;2023-05-02T10:32:05;5.53;;;1.38;;
69954;SDS011;57279;55.912;37.490;2023-05-02T10:34:32;4.80;;;0.90;;
69954;SDS011;57279;55.912;37.490;2023-05-02T10:37:01;5.22;;;1.23;;
69954;SDS011;57279;55.912;37.490;2023-05-02T10:39:27;4.75;;;0.73;;
69954;SDS011;57279;55.912;37.490;2023-05-02T10:41:54;5.20;;;0.73;;
69954;SDS011;57279;55.912;37.490;2023-05-02T10:44:32;3.97;;;0.73;;
69954;SDS011;57279;55.912;37.490;2023-05-02T10:47:21;4.18;;;0.82;;
69954;SDS011;57279;55.912;37.490;2023-05-02T10:49:48;4.72;;;1.00;;
69954;SDS011;57279;55.912;37.490;2023-05-02T10:52:34;4.38;;;0.60;;
69954;SDS011;57279;55.912;37.490;2023-05-02T10:55:23;3.63;;;0.70;;
69954;SDS011;57279;55.912;37.490;2023-05-02T11:00:33;5.85;;;0.82;;
69954;SDS011;57279;55.912;37.490;2023-05-02T11:02:59;6.75;;;0.80;;
69954;SDS011;57279;55.912;37.490;2023-05-02T11:05:25;7.05;;;1.13;;
69954;SDS011;57279;55.912;37.490;2023-05-02T11:10:39;4.47;;;0.85;;
69954;SDS011;57279;55.912;37.490;2023-05-02T11:13:05;3.97;;;0.73;;
69954;SDS011;57279;55.912;37.490;2023-05-02T11:18:02;4.10;;;0.82;;
69954;SDS011;57279;55.912;37.490;2023-05-02T11:20:32;5.00;;;0.82;;
69954;SDS011;57279;55.912;37.490;2023-05-02T11:23:18;5.70;;;0.77;;
69954;SDS011;57279;55.912;37.490;2023-05-02T11:25:55;4.45;;;1.00;;
69954;SDS011;57279;55.912;37.490;2023-05-02T11:33:57;5.28;;;0.90;;
69954;SDS011;57279;55.912;37.490;2023-05-02T11:36:34;6.47;;;0.80;;
69954;SDS011;57279;55.912;37.490;2023-05-02T11:39:00;5.57;;;0.80;;
69954;SDS011;57279;55.912;37.490;2023-05-02T11:41:42;19.52;;;2.95;;
69954;SDS011;57279;55.912;37.490;2023-05-02T11:44:08;14.32;;;2.60;;
69954;SDS011;57279;55.912;37.490;2023-05-02T11:46:37;5.97;;;1.08;;
69954;SDS011;57279;55.912;37.490;2023-05-02T11:49:04;3.95;;;0.73;;
69954;SDS011;57279;55.912;37.490;2023-05-02T11:51:32;5.32;;;0.70;;
69954;SDS011;57279;55.912;37.490;2023-05-02T11:53:58;3.97;;;0.82;;
69954;SDS011;57279;55.912;37.490;2023-05-02T11:56:23;4.07;;;0.82;;
69954;SDS011;57279;55.912;37.490;2023-05-02T11:58:57;5.88;;;0.80;;
69954;SDS011;57279;55.912;37.490;2023-05-02T12:01:24;5.55;;;1.00;;
69954;SDS011;57279;55.912;37.490;2023-05-02T12:03:50;7.00;;;0.90;;
69954;SDS011;57279;55.912;37.490;2023-05-02T12:06:29;5.95;;;0.77;;
69954;SDS011;57279;55.912;37.490;2023-05-02T12:11:51;5.15;;;1.00;;
69954;SDS011;57279;55.912;37.490;2023-05-02T12:14:24;4.35;;;0.73;;
69954;SDS011;57279;55.912;37.490;2023-05-02T12:17:01;7.47;;;0.75;;
69954;SDS011;57279;55.912;37.490;2023-05-02T12:19:28;7.20;;;1.00;;
69954;SDS011;57279;55.912;37.490;2023-05-02T12:21:54;4.85;;;0.93;;
69954;SDS011;57279;55.912;37.490;2023-05-02T12:24:20;4.35;;;0.85;;
69954;SDS011;57279;55.912;37.490;2023-05-02T12:26:46;4.55;;;0.75;;
69954;SDS011;57279;55.912;37.490;2023-05-02T12:29:11;7.85;;;1.33;;
69954;SDS011;57279;55.912;37.490;2023-05-02T12:31:37;5.18;;;0.93;;
69954;SDS011;57279;55.912;37.490;2023-05-02T12:34:03;6.38;;;1.08;;
69954;SDS011;57279;55.912;37.490;2023-05-02T12:36:28;6.35;;;1.05;;
69954;SDS011;57279;55.912;37.490;2023-05-02T12:38:55;4.68;;;0.82;;
69954;SDS011;57279;55.912;37.490;2023-05-02T12:41:33;4.57;;;0.80;;
69954;SDS011;57279;55.912;37.490;2023-05-02T12:44:01;6.72;;;0.95;;
69954;SDS011;57279;55.912;37.490;2023-05-02T12:46:28;7.13;;;0.93;;
69954;SDS011;57279;55.912;37.490;2023-05-02T12:49:00;4.82;;;0.82;;
69954;SDS011;57279;55.912;37.490;2023-05-02T12:51:30;5.05;;;0.90;;
69954;SDS011;57279;55.912;37.490;2023-05-02T12:53:57;4.97;;;0.82;;
69954;SDS011;57279;55.912;37.490;2023-05-02T12:56:22;4.57;;;0.98;;
69954;SDS011;57279;55.912;37.490;2023-05-02T12:58:48;5.72;;;0.90;;
69954;SDS011;57279;55.912;37.490;2023-05-02T13:01:15;5.97;;;0.85;;
69954;SDS011;57279;55.912;37.490;2023-05-02T13:03:41;4.95;;;1.20;;
69954;SDS011;57279;55.912;37.490;2023-05-02T13:06:07;5.60;;;1.17;;
69954;SDS011;57279;55.912;37.490;2023-05-02T13:08:33;5.68;;;1.10;;
69954;SDS011;57279;55.912;37.490;2023-05-02T13:11:03;5.93;;;1.10;;
69954;SDS011;57279;55.912;37.490;2023-05-02T13:13:29;9.63;;;1.10;;
69954;SDS011;57279;55.912;37.490;2023-05-02T13:15:55;4.35;;;1.10;;
69954;SDS011;57279;55.912;37.490;2023-05-02T13:18:20;6.03;;;1.55;;
69954;SDS011;57279;55.912;37.490;2023-05-02T13:20:46;24.63;;;2.03;;
69954;SDS011;57279;55.912;37.490;2023-05-02T13:23:12;6.22;;;1.15;;
69954;SDS011;57279;55.912;37.490;2023-05-02T13:25:38;8.50;;;1.42;;
69954;SDS011;57279;55.912;37.490;2023-05-02T13:28:03;5.97;;;1.23;;
69954;SDS011;57279;55.912;37.490;2023-05-02T13:30:30;7.15;;;1.02;;
69954;SDS011;57279;55.912;37.490;2023-05-02T13:32:56;9.32;;;2.03;;
69954;SDS011;57279;55.912;37.490;2023-05-02T13:35:23;5.38;;;1.15;;
69954;SDS011;57279;55.912;37.490;2023-05-02T13:37:49;6.32;;;0.93;;
69954;SDS011;57279;55.912;37.490;2023-05-02T13:40:15;6.82;;;0.98;;
69954;SDS011;57279;55.912;37.490;2023-05-02T13:42:41;6.57;;;0.80;;
69954;SDS011;57279;55.912;37.490;2023-05-02T13:45:07;5.78;;;0.90;;
69954;SDS011;57279;55.912;37.490;2023-05-02T13:47:33;8.10;;;1.33;;
69954;SDS011;57279;55.912;37.490;2023-05-02T13:49:59;6.70;;;1.13;;
69954;SDS011;57279;55.912;37.490;2023-05-02T13:52:24;6.40;;;1.08;;
69954;SDS011;57279;55.912;37.490;2023-05-02T13:54:50;5.93;;;1.38;;
69954;SDS011;57279;55.912;37.490;2023-05-02T13:57:16;4.75;;;1.17;;
69954;SDS011;57279;55.912;37.490;2023-05-02T13:59:41;8.25;;;1.13;;
69954;SDS011;57279;55.912;37.490;2023-05-02T14:02:07;5.65;;;1.40;;
69954;SDS011;57279;55.912;37.490;2023-05-02T14:04:32;6.45;;;1.05;;
69954;SDS011;57279;55.912;37.490;2023-05-02T14:06:58;8.18;;;1.23;;
69954;SDS011;57279;55.912;37.490;2023-05-02T14:09:24;6.25;;;1.23;;
69954;SDS011;57279;55.912;37.490;2023-05-02T14:11:49;7.32;;;0.98;;
69954;SDS011;57279;55.912;37.490;2023-05-02T14:14:15;8.20;;;0.98;;
69954;SDS011;57279;55.912;37.490;2023-05-02T14:16:41;9.35;;;1.10;;
69954;SDS011;57279;55.912;37.490;2023-05-02T14:19:07;7.20;;;1.17;;
69954;SDS011;57279;55.912;37.490;2023-05-02T14:21:32;7.07;;;1.30;;
69954;SDS011;57279;55.912;37.490;2023-05-02T14:23:58;5.32;;;1.00;;
69954;SDS011;57279;55.912;37.490;2023-05-02T14:26:24;8.73;;;1.13;;
69954;SDS011;57279;55.912;37.490;2023-05-02T14:28:50;7.75;;;1.00;;
69954;SDS011;57279;55.912;37.490;2023-05-02T14:31:16;9.25;;;1.13;;
69954;SDS011;57279;55.912;37.490;2023-05-02T14:33:42;9.45;;;1.10;;
69954;SDS011;57279;55.912;37.490;2023-05-02T14:36:08;7.53;;;1.33;;
69954;SDS011;57279;55.912;37.490;2023-05-02T14:38:33;5.15;;;1.10;;
69954;SDS011;57279;55.912;37.490;2023-05-02T14:40:59;9.05;;;0.88;;
69954;SDS011;57279;55.912;37.490;2023-05-02T14:43:27;6.40;;;1.27;;
69954;SDS011;57279;55.912;37.490;2023-05-02T14:45:52;4.82;;;1.00;;
69954;SDS011;57279;55.912;37.490;2023-05-02T14:48:18;7.25;;;1.02;;
69954;SDS011;57279;55.912;37.490;2023-05-02T14:50:44;6.13;;;1.02;;
69954;SDS011;57279;55.912;37.490;2023-05-02T14:53:10;7.68;;;1.33;;
69954;SDS011;57279;55.912;37.490;2023-05-02T14:55:36;8.95;;;1.17;;
69954;SDS011;57279;55.912;37.490;2023-05-02T14:58:03;8.27;;;1.30;;
69954;SDS011;57279;55.912;37.490;2023-05-02T15:00:33;6.22;;;1.25;;
69954;SDS011;57279;55.912;37.490;2023-05-02T15:03:02;5.72;;;0.95;;
69954;SDS011;57279;55.912;37.490;2023-05-02T15:05:29;7.13;;;1.27;;
69954;SDS011;57279;55.912;37.490;2023-05-02T15:07:55;5.15;;;0.82;;
69954;SDS011;57279;55.912;37.490;2023-05-02T15:10:20;8.88;;;1.00;;
69954;SDS011;57279;55.912;37.490;2023-05-02T15:12:46;5.60;;;0.88;;
69954;SDS011;57279;55.912;37.490;2023-05-02T15:15:15;6.75;;;0.90;;
69954;SDS011;57279;55.912;37.490;2023-05-02T15:17:42;4.80;;;0.80;;
69954;SDS011;57279;55.912;37.490;2023-05-02T15:20:08;5.03;;;0.95;;
69954;SDS011;57279;55.912;37.490;2023-05-02T15:22:34;10.32;;;1.33;;
69954;SDS011;57279;55.912;37.490;2023-05-02T15:25:00;6.18;;;1.30;;
69954;SDS011;57279;55.912;37.490;2023-05-02T15:27:26;5.13;;;1.00;;
69954;SDS011;57279;55.912;37.490;2023-05-02T15:29:51;6.35;;;1.23;;
69954;SDS011;57279;55.912;37.490;2023-05-02T15:32:17;15.35;;;1.23;;
69954;SDS011;57279;55.912;37.490;2023-05-02T15:34:43;7.05;;;1.30;;
69954;SDS011;57279;55.912;37.490;2023-05-02T15:37:08;6.35;;;1.65;;
69954;SDS011;57279;55.912;37.490;2023-05-02T15:39:35;9.90;;;1.92;;
69954;SDS011;57279;55.912;37.490;2023-05-02T15:42:04;8.25;;;1.73;;
69954;SDS011;57279;55.912;37.490;2023-05-02T15:44:36;5.68;;;1.23;;
69954;SDS011;57279;55.912;37.490;2023-05-02T15:47:02;6.65;;;1.23;;
69954;SDS011;57279;55.912;37.490;2023-05-02T15:49:28;7.35;;;1.02;;